createdAt,value
2022-10-01T00:03:43.246Z,9.9
2022-10-01T00:09:20.238Z,9.8
2022-10-01T00:14:58.068Z,9.8
2022-10-01T00:20:35.005Z,9.8
2022-10-01T00:26:11.552Z,9.8
2022-10-01T00:31:53.154Z,9.8
2022-10-01T00:37:30.463Z,9.7
2022-10-01T00:43:07.162Z,9.7
2022-10-01T00:48:45.356Z,9.6
2022-10-01T00:54:10.171Z,9.6
2022-10-01T00:59:47.261Z,9.6
2022-10-01T01:05:24.758Z,9.5
2022-10-01T01:10:44.807Z,9.5
2022-10-01T01:16:23.139Z,9.4
2022-10-01T01:21:45.339Z,9.5
2022-10-01T01:27:05.695Z,9.4
2022-10-01T01:32:31.216Z,9.4
2022-10-01T01:38:08.605Z,9.2
2022-10-01T01:43:30.497Z,9.1
2022-10-01T01:49:08.367Z,9.1
2022-10-01T01:54:45.787Z,9
2022-10-01T02:00:07.438Z,8.9
2022-10-01T02:05:45.215Z,8.9
2022-10-01T02:11:22.968Z,8.9
2022-10-01T02:17:00.221Z,9
2022-10-01T02:22:37.645Z,9.1
2022-10-01T02:28:14.885Z,9.1
2022-10-01T02:33:52.838Z,9
2022-10-01T02:39:32.930Z,9
2022-10-01T02:44:39.909Z,9
2022-10-01T02:50:21.395Z,9.1
2022-10-01T02:55:58.730Z,9.2
2022-10-01T03:01:37.598Z,9.3
2022-10-01T03:06:59.014Z,9.4
2022-10-01T03:12:36.711Z,9.5
2022-10-01T03:18:14.161Z,9.6
2022-10-01T03:23:50.947Z,9.7
2022-10-01T03:29:27.980Z,9.8
2022-10-01T03:34:50.033Z,9.9
2022-10-01T03:40:11.109Z,9.9
2022-10-01T03:45:49.556Z,9.9
2022-10-01T03:51:11.288Z,9.9
2022-10-01T03:56:47.346Z,9.9
2022-10-01T04:02:25.284Z,9.8
2022-10-01T04:07:47.247Z,9.6
2022-10-01T04:13:28.030Z,9.6
2022-10-01T04:19:05.508Z,9.4
2022-10-01T04:24:12.681Z,9.5
2022-10-01T04:29:54.502Z,9.4
2022-10-01T04:35:32.089Z,9.6
2022-10-01T04:40:56.859Z,9.6
2022-10-01T04:46:33.850Z,9.8
2022-10-01T04:51:56.137Z,10.1
2022-10-01T04:57:18.492Z,10.4
2022-10-01T05:02:46.177Z,11.1
2022-10-01T05:08:07.727Z,12.2
2022-10-01T05:13:48.703Z,13.1
2022-10-01T05:19:11.413Z,14.6
2022-10-01T05:24:48.487Z,17.6
2022-10-01T05:30:10.945Z,21.2
2022-10-01T05:35:48.412Z,24.6
2022-10-01T05:41:26.161Z,26.6
2022-10-01T05:46:53.107Z,31.4
2022-10-01T05:52:30.034Z,34.9
2022-10-01T05:58:07.423Z,35.4
2022-10-01T06:03:48.753Z,35.5
2022-10-01T06:09:28.822Z,38.6
2022-10-01T06:15:11.547Z,42.8
2022-10-01T06:20:49.748Z,47.6
2022-10-01T06:26:27.115Z,49.9
2022-10-01T06:32:05.132Z,53.8
2022-10-01T06:37:27.934Z,39.9
2022-10-01T06:43:08.337Z,40.1
2022-10-01T06:48:31.388Z,48.2
2022-10-01T06:53:54.762Z,52.2
2022-10-01T06:59:32.026Z,43.8
2022-10-01T07:05:10.895Z,45.6
2022-10-01T07:10:53.043Z,47.1
2022-10-01T07:16:30.196Z,48.6
2022-10-01T07:22:09.127Z,50.3
2022-10-01T07:27:31.071Z,51.1
2022-10-01T07:32:53.184Z,50.6
2022-10-01T07:38:15.907Z,50.3
2022-10-01T07:43:54.655Z,49.3
2022-10-01T07:49:17.036Z,48.9
2022-10-01T07:54:39.452Z,46.9
2022-10-01T08:00:17.437Z,45.1
2022-10-01T08:05:55.656Z,44.7
2022-10-01T08:11:33.431Z,44.3
2022-10-01T08:16:56.549Z,43.1
2022-10-01T08:22:03.346Z,41.9
2022-10-01T08:27:15.277Z,40.7
2022-10-01T08:32:44.795Z,39.7
2022-10-01T08:37:51.542Z,38.4
2022-10-01T08:43:13.428Z,37.4
2022-10-01T08:48:54.763Z,36.6
2022-10-01T08:54:34.195Z,36
2022-10-01T09:00:01.279Z,35.1
2022-10-01T09:05:39.318Z,34.4
2022-10-01T09:11:01.657Z,33.5
2022-10-01T09:16:42.208Z,32.6
2022-10-01T09:22:24.175Z,31.6
2022-10-01T09:27:30.945Z,30.3
2022-10-01T09:32:53.716Z,29.1
2022-10-01T09:38:31.507Z,27.9
2022-10-01T09:43:54.267Z,26.8
2022-10-01T09:49:16.871Z,25.9
2022-10-01T09:54:39.397Z,25.4
2022-10-01T10:00:17.278Z,25.3
2022-10-01T10:06:02.850Z,25.4
2022-10-01T10:11:15.520Z,25.6
2022-10-01T10:16:54.538Z,25.6
2022-10-01T10:22:38.357Z,25.7
2022-10-01T10:28:16.113Z,25.8
2022-10-01T10:33:58.757Z,25.8
2022-10-01T10:39:36.731Z,25.5
2022-10-01T10:45:17.570Z,24.9
2022-10-01T10:50:45.797Z,24.4
2022-10-01T10:55:57.021Z,24.1
2022-10-01T11:01:23.646Z,23.9
2022-10-01T11:06:46.663Z,23.7
2022-10-01T11:11:54.629Z,23.7
2022-10-01T11:17:33.422Z,23.6
2022-10-01T11:23:12.579Z,23.9
2022-10-01T11:28:55.077Z,24.4
2022-10-01T11:34:17.302Z,24.4
2022-10-01T11:39:54.627Z,24
2022-10-01T11:45:34.667Z,23.8
2022-10-01T11:51:13.624Z,23.8
2022-10-01T11:56:55.625Z,24.1
2022-10-01T12:02:17.490Z,24.8
2022-10-01T12:08:02.789Z,25.9
2022-10-01T12:13:39.523Z,27.1
2022-10-01T12:19:21.914Z,28.3
2022-10-01T12:25:00.685Z,29
2022-10-01T12:30:11.991Z,29.8
2022-10-01T12:35:50.441Z,31.3
2022-10-01T12:41:12.782Z,31.6
2022-10-01T12:46:34.632Z,31.1
2022-10-01T12:51:57.019Z,30.4
2022-10-01T12:57:39.105Z,29.1
2022-10-01T13:03:01.255Z,27.8
2022-10-01T13:08:39.625Z,26.8
2022-10-01T13:14:20.824Z,26.6
2022-10-01T13:19:28.021Z,28.3
2022-10-01T13:25:06.017Z,30.1
2022-10-01T13:30:44.264Z,31.1
2022-10-01T13:36:26.059Z,31.2
2022-10-01T13:42:05.097Z,30.8
2022-10-01T13:47:28.210Z,30.1
2022-10-01T13:53:05.775Z,31.3
2022-10-01T13:58:43.362Z,32.8
2022-10-01T14:04:10.027Z,33.9
2022-10-01T14:09:31.233Z,35.4
2022-10-01T14:14:53.640Z,36.3
2022-10-01T14:20:16.957Z,37.2
2022-10-01T14:25:38.998Z,37.5
2022-10-01T14:31:01.690Z,37.5
2022-10-01T14:36:24.457Z,36.9
2022-10-01T14:42:05.772Z,36.4
2022-10-01T14:47:43.318Z,35.8
2022-10-01T14:53:25.121Z,35.1
2022-10-01T14:59:03.466Z,34.5
2022-10-01T15:04:25.706Z,33.8
2022-10-01T15:09:53.152Z,33.1
2022-10-01T15:15:14.765Z,32.4
2022-10-01T15:20:53.217Z,31.8
2022-10-01T15:25:59.982Z,30.9
2022-10-01T15:31:41.092Z,30.1
2022-10-01T15:37:04.056Z,29.4
2022-10-01T15:43:04.871Z,28.6
2022-10-01T15:53:49.464Z,27.1
2022-10-01T15:59:27.657Z,26.4
2022-10-01T16:05:05.515Z,25.7
2022-10-01T16:10:42.700Z,24.9
2022-10-01T16:16:21.133Z,24.1
2022-10-01T16:21:44.370Z,23.5
2022-10-01T16:27:07.191Z,22.9
2022-10-01T16:32:29.940Z,22.3
2022-10-01T16:38:07.444Z,21.8
2022-10-01T16:44:07.129Z,21.1
2022-10-01T16:49:30.058Z,20.4
2022-10-01T16:54:51.798Z,19.7
2022-10-01T16:59:58.204Z,19.2
2022-10-01T17:05:24.343Z,18.8
2022-10-01T17:11:01.916Z,18.6
2022-10-01T17:16:41.456Z,18.3
2022-10-01T17:22:19.421Z,18.1
2022-10-01T17:27:57.270Z,18
2022-10-01T17:33:36.280Z,17.9
2022-10-01T17:39:13.747Z,17.8
2022-10-01T17:44:55.126Z,17.8
2022-10-01T17:50:39.809Z,17.6
2022-10-01T17:56:09.557Z,17.6
2022-10-01T18:01:52.522Z,17.5
2022-10-01T18:07:50.720Z,17.4
2022-10-01T18:13:29.825Z,17.3
2022-10-01T18:20:12.301Z,17.2
2022-10-01T18:25:38.890Z,17.1
2022-10-01T18:31:01.296Z,16.9
2022-10-01T18:36:38.752Z,16.9
2022-10-01T18:42:17.101Z,16.8
2022-10-01T18:47:59.021Z,16.7
2022-10-01T18:53:05.049Z,16.6
2022-10-01T18:58:31.735Z,16.6
2022-10-01T19:04:12.793Z,16.5
2022-10-01T19:09:50.665Z,16.4
2022-10-01T19:15:33.219Z,16.4
2022-10-01T19:21:01.624Z,16.3
2022-10-01T19:26:39.138Z,16.3
2022-10-01T19:32:17.439Z,16.3
2022-10-01T19:37:28.863Z,16.3
2022-10-01T19:42:50.415Z,16.3
2022-10-01T19:48:12.709Z,16.1
2022-10-01T19:53:50.813Z,16.1
2022-10-01T19:59:12.669Z,16.1
2022-10-01T20:04:38.681Z,16.1
2022-10-01T20:10:05.208Z,16
2022-10-01T20:15:43.110Z,16
2022-10-01T20:21:21.405Z,15.9
2022-10-01T20:26:58.729Z,15.9
2022-10-01T20:32:21.128Z,15.8
2022-10-01T20:38:03.330Z,15.8
2022-10-01T20:43:28.708Z,15.8
2022-10-01T20:48:51.724Z,15.7
2022-10-01T20:54:13.993Z,15.7
2022-10-01T20:59:21.101Z,15.7
2022-10-01T21:04:59.462Z,15.7
2022-10-01T21:10:21.874Z,15.7
2022-10-01T21:15:43.777Z,15.6
2022-10-01T21:21:25.994Z,15.6
2022-10-01T21:26:47.328Z,15.6
2022-10-01T21:32:24.773Z,15.5
2022-10-01T21:37:50.947Z,15.5
2022-10-01T21:43:33.149Z,15.4
2022-10-01T21:48:59.874Z,15.4
2022-10-01T21:54:40.905Z,15.4
2022-10-01T22:00:18.268Z,15.4
2022-10-01T22:05:56.983Z,15.4
2022-10-01T22:11:34.056Z,15.4
2022-10-01T22:17:12.256Z,15.4
2022-10-01T22:22:34.496Z,15.4
2022-10-01T22:27:56.054Z,15.4
2022-10-01T22:33:18.235Z,15.4
2022-10-01T22:38:25.191Z,15.4
2022-10-01T22:44:01.533Z,15.3
2022-10-01T22:49:39.358Z,15.3
2022-10-01T22:55:17.448Z,15.3
2022-10-01T23:00:55.201Z,15.2
2022-10-01T23:06:17.432Z,15.1
2022-10-01T23:11:55.483Z,15.1
2022-10-01T23:17:32.630Z,15.1
2022-10-01T23:23:10.132Z,15
2022-10-01T23:28:17.088Z,15
2022-10-01T23:33:23.769Z,15
2022-10-01T23:39:00.808Z,14.9
2022-10-01T23:44:23.006Z,14.9
2022-10-01T23:49:44.961Z,14.9
2022-10-01T23:55:22.058Z,14.8
